createdAt,value
2022-11-05T00:00:36.789Z,178.98
2022-11-05T00:03:22.685Z,171.77
2022-11-05T00:06:09.943Z,155.38
2022-11-05T00:08:57.227Z,182.88
2022-11-05T00:11:43.891Z,161.43
2022-11-05T00:14:29.596Z,318.98
2022-11-05T00:16:58.677Z,153.13
2022-11-05T00:19:25.376Z,159.00
2022-11-05T00:22:10.568Z,161.65
2022-11-05T00:24:55.842Z,169.80
2022-11-05T00:27:22.590Z,152.95
2022-11-05T00:29:49.291Z,149.68
2022-11-05T00:32:16.115Z,175.55
2022-11-05T00:34:42.858Z,162.55
2022-11-05T00:37:11.926Z,176.70
2022-11-05T00:39:38.669Z,167.00
2022-11-05T00:42:46.059Z,164.98
2022-11-05T00:45:15.057Z,184.25
2022-11-05T00:48:00.666Z,173.52
2022-11-05T00:50:32.103Z,162.35
2022-11-05T00:53:00.369Z,162.50
2022-11-05T00:55:42.336Z,166.07
2022-11-05T00:58:13.982Z,159.80
2022-11-05T01:00:43.378Z,177.05
2022-11-05T01:03:13.735Z,180.18
2022-11-05T01:05:52.159Z,177.30
2022-11-05T01:08:21.148Z,168.00
2022-11-05T01:10:51.857Z,169.30
2022-11-05T01:13:28.073Z,163.07
2022-11-05T01:15:55.872Z,160.52
2022-11-05T01:18:24.249Z,161.00
2022-11-05T01:20:51.351Z,162.73
2022-11-05T01:23:19.041Z,155.18
2022-11-05T01:25:48.219Z,174.13
2022-11-05T01:28:15.068Z,180.43
2022-11-05T01:30:41.873Z,169.07
2022-11-05T01:33:08.894Z,183.38
2022-11-05T01:35:40.650Z,177.55
2022-11-05T01:38:07.745Z,194.77
2022-11-05T01:40:34.459Z,174.27
2022-11-05T01:43:01.264Z,183.15
2022-11-05T01:45:28.919Z,181.93
2022-11-05T01:47:58.691Z,172.75
2022-11-05T01:50:57.994Z,175.93
2022-11-05T01:53:44.598Z,172.57
2022-11-05T01:56:16.021Z,181.05
2022-11-05T01:59:06.572Z,181.85
2022-11-05T02:01:36.139Z,188.20
2022-11-05T02:04:10.546Z,188.38
2022-11-05T02:06:45.916Z,183.07
2022-11-05T02:09:27.165Z,190.00
2022-11-05T02:11:53.946Z,179.30
2022-11-05T02:14:20.815Z,176.98
2022-11-05T02:17:02.881Z,179.65
2022-11-05T02:19:44.663Z,174.00
2022-11-05T02:22:54.834Z,196.88
2022-11-05T02:25:39.705Z,164.95
2022-11-05T02:28:25.137Z,196.32
2022-11-05T02:31:14.139Z,172.77
2022-11-05T02:34:11.466Z,191.27
2022-11-05T02:36:52.651Z,188.13
2022-11-05T02:39:19.498Z,179.27
2022-11-05T02:42:04.653Z,190.27
2022-11-05T02:44:42.155Z,180.45
2022-11-05T02:47:28.280Z,192.15
2022-11-05T02:50:14.333Z,178.88
2022-11-05T02:52:51.142Z,181.45
2022-11-05T02:55:36.942Z,175.43
2022-11-05T02:58:07.238Z,181.57
2022-11-05T03:00:42.988Z,187.00
2022-11-05T03:03:35.628Z,193.57
2022-11-05T03:06:44.270Z,188.60
2022-11-05T03:09:41.959Z,194.23
2022-11-05T03:12:43.091Z,183.93
2022-11-05T03:15:31.756Z,182.27
2022-11-05T03:18:21.979Z,176.05
2022-11-05T03:21:21.442Z,174.45
2022-11-05T03:23:58.014Z,183.73
2022-11-05T03:26:30.722Z,172.95
2022-11-05T03:29:11.743Z,171.80
2022-11-05T03:31:40.813Z,200.38
2022-11-05T03:34:12.844Z,181.05
2022-11-05T03:36:44.769Z,193.98
2022-11-05T03:39:19.040Z,185.77
2022-11-05T03:41:51.119Z,186.30
2022-11-05T03:44:24.865Z,180.15
2022-11-05T03:46:54.886Z,185.80
2022-11-05T03:49:27.153Z,186.57
2022-11-05T03:52:15.643Z,180.02
2022-11-05T03:54:42.844Z,197.57
2022-11-05T03:57:20.445Z,196.45
2022-11-05T03:59:49.887Z,191.05
2022-11-05T04:02:21.775Z,198.00
2022-11-05T04:04:49.065Z,173.45
2022-11-05T04:07:34.327Z,194.93
2022-11-05T04:10:19.600Z,179.20
2022-11-05T04:13:04.896Z,183.57
2022-11-05T04:15:51.868Z,190.27
2022-11-05T04:18:21.060Z,178.10
2022-11-05T04:21:08.403Z,176.35
2022-11-05T04:23:54.254Z,192.93
2022-11-05T04:26:23.735Z,177.20
2022-11-05T04:29:10.004Z,182.10
2022-11-05T04:31:37.674Z,191.75
2022-11-05T04:34:06.612Z,190.98
2022-11-05T04:36:33.302Z,195.40
2022-11-05T04:39:00.031Z,188.25
2022-11-05T04:41:27.104Z,178.48
2022-11-05T04:43:54.006Z,186.63
2022-11-05T04:46:20.655Z,188.23
2022-11-05T04:48:47.421Z,194.45
2022-11-05T04:51:16.802Z,191.18
2022-11-05T04:53:43.496Z,198.68
2022-11-05T04:56:20.267Z,192.20
2022-11-05T04:58:52.399Z,192.00
2022-11-05T05:01:21.884Z,183.32
2022-11-05T05:03:51.962Z,185.50
2022-11-05T05:06:18.998Z,183.20
2022-11-05T05:08:48.308Z,195.65
2022-11-05T05:11:17.452Z,184.52
2022-11-05T05:13:44.602Z,188.50
2022-11-05T05:16:26.628Z,188.75
2022-11-05T05:18:54.251Z,181.30
2022-11-05T05:21:41.623Z,175.43
2022-11-05T05:24:09.923Z,205.70
2022-11-05T05:26:38.105Z,200.75
2022-11-05T05:29:07.577Z,198.75
2022-11-05T05:31:34.795Z,196.23
2022-11-05T05:34:04.427Z,192.52
2022-11-05T05:36:31.729Z,196.23
2022-11-05T05:38:58.893Z,193.68
2022-11-05T05:41:25.559Z,196.60
2022-11-05T05:43:52.354Z,188.00
2022-11-05T05:46:19.795Z,188.77
2022-11-05T05:48:51.134Z,203.60
2022-11-05T05:51:19.012Z,178.48
2022-11-05T05:53:48.322Z,196.73
2022-11-05T05:56:19.352Z,173.02
2022-11-05T05:58:51.790Z,183.50
2022-11-05T06:01:20.145Z,178.90
2022-11-05T06:03:50.295Z,188.13
2022-11-05T06:06:21.131Z,196.73
2022-11-05T06:08:50.470Z,176.02
2022-11-05T06:11:17.262Z,185.95
2022-11-05T06:13:44.119Z,185.45
2022-11-05T06:16:11.196Z,187.68
2022-11-05T06:18:42.466Z,182.52
2022-11-05T06:21:18.548Z,183.95
2022-11-05T06:23:49.067Z,175.98
2022-11-05T06:26:18.361Z,174.32
2022-11-05T06:28:47.788Z,192.25
2022-11-05T06:31:17.243Z,521.67
2022-11-05T06:33:44.020Z,469.80
2022-11-05T06:36:15.405Z,184.32
2022-11-05T06:38:42.201Z,196.50
2022-11-05T06:41:13.312Z,493.75
2022-11-05T06:43:43.659Z,451.55
2022-11-05T06:46:11.851Z,398.27
2022-11-05T06:48:39.144Z,407.45
2022-11-05T06:51:08.130Z,184.50
2022-11-05T06:53:35.267Z,183.18
2022-11-05T06:56:04.108Z,184.07
2022-11-05T06:58:35.030Z,164.13
2022-11-05T07:01:08.435Z,173.40
2022-11-05T07:03:36.629Z,184.77
2022-11-05T07:06:06.688Z,183.73
2022-11-05T07:08:34.645Z,177.45
2022-11-05T07:11:01.621Z,174.95
2022-11-05T07:13:28.419Z,177.55
2022-11-05T07:15:55.274Z,164.48
2022-11-05T07:18:22.587Z,160.32
2022-11-05T07:20:49.295Z,161.48
2022-11-05T07:23:16.348Z,178.68
2022-11-05T07:25:43.499Z,165.65
2022-11-05T07:28:11.219Z,173.65
2022-11-05T07:30:38.940Z,187.45
2022-11-05T07:33:05.938Z,194.15
2022-11-05T07:35:35.384Z,172.65
2022-11-05T07:38:02.185Z,172.70
2022-11-05T07:40:30.445Z,177.55
2022-11-05T07:42:59.931Z,179.10
2022-11-05T07:45:28.210Z,172.25
2022-11-05T07:47:57.860Z,172.43
2022-11-05T07:50:27.652Z,173.60
2022-11-05T07:52:59.280Z,157.30
2022-11-05T07:55:28.367Z,168.43
2022-11-05T07:57:55.355Z,186.88
2022-11-05T08:00:24.204Z,176.32
2022-11-05T08:03:08.218Z,173.57
2022-11-05T08:05:38.134Z,190.30
2022-11-05T08:08:06.807Z,192.73
2022-11-05T08:10:34.211Z,190.25
2022-11-05T08:13:01.465Z,198.82
2022-11-05T08:15:29.510Z,173.25
2022-11-05T08:18:00.028Z,176.20
2022-11-05T08:20:28.178Z,195.25
2022-11-05T08:22:55.490Z,175.82
2022-11-05T08:25:23.754Z,172.52
2022-11-05T08:28:02.281Z,172.98
2022-11-05T08:30:29.293Z,186.85
2022-11-05T08:33:01.598Z,173.18
2022-11-05T08:35:29.124Z,165.80
2022-11-05T08:38:02.083Z,171.93
2022-11-05T08:40:31.590Z,167.30
2022-11-05T08:43:05.020Z,173.30
2022-11-05T08:45:32.322Z,174.35
2022-11-05T08:48:08.088Z,161.75
2022-11-05T08:50:38.617Z,178.27
2022-11-05T08:53:06.548Z,182.70
2022-11-05T08:55:36.349Z,166.25
2022-11-05T08:58:05.463Z,185.05
2022-11-05T09:00:35.142Z,169.52
2022-11-05T09:03:04.435Z,161.88
2022-11-05T09:05:32.440Z,168.32
2022-11-05T09:08:01.364Z,163.20
2022-11-05T09:10:28.569Z,164.13
2022-11-05T09:12:55.610Z,184.40
2022-11-05T09:15:24.878Z,170.18
2022-11-05T09:17:53.240Z,170.25
2022-11-05T09:20:21.613Z,168.68
2022-11-05T09:22:48.654Z,161.68
2022-11-05T09:25:15.962Z,188.73
2022-11-05T09:27:43.506Z,183.32
2022-11-05T09:30:14.252Z,175.52
2022-11-05T09:32:41.641Z,178.70
2022-11-05T09:35:09.093Z,188.02
2022-11-05T09:37:38.853Z,191.18
2022-11-05T09:40:06.456Z,189.25
2022-11-05T09:42:42.307Z,184.18
2022-11-05T09:45:21.023Z,180.63
2022-11-05T09:47:55.519Z,176.85
2022-11-05T09:50:32.022Z,167.18
2022-11-05T09:53:01.826Z,171.32
2022-11-05T09:55:37.951Z,173.63
2022-11-05T09:58:26.001Z,220.50
2022-11-05T10:00:56.372Z,235.88
2022-11-05T10:03:27.285Z,274.52
2022-11-05T10:06:09.272Z,237.60
2022-11-05T10:08:43.474Z,185.93
2022-11-05T10:11:21.831Z,179.70
2022-11-05T10:13:59.482Z,168.68
2022-11-05T10:16:32.385Z,174.15
2022-11-05T10:19:09.633Z,170.25
2022-11-05T10:22:04.993Z,189.55
2022-11-05T10:24:24.843Z,167.20
2022-11-05T10:26:55.786Z,166.95
2022-11-05T10:29:32.474Z,163.35
2022-11-05T10:32:05.449Z,167.43
2022-11-05T10:34:37.509Z,177.75
2022-11-05T10:37:06.461Z,181.15
2022-11-05T10:39:34.651Z,170.25
2022-11-05T10:42:01.387Z,171.68
2022-11-05T10:44:34.801Z,191.40
2022-11-05T10:47:18.648Z,172.13
2022-11-05T10:50:00.491Z,176.55
2022-11-05T10:52:47.764Z,162.95
2022-11-05T10:55:23.916Z,172.85
2022-11-05T10:57:50.864Z,166.70
2022-11-05T11:00:18.564Z,176.63
2022-11-05T11:02:52.328Z,166.00
2022-11-05T11:05:35.475Z,163.40
2022-11-05T11:08:04.612Z,170.35
2022-11-05T11:10:37.131Z,164.52
2022-11-05T11:13:03.989Z,178.80
2022-11-05T11:15:35.068Z,165.38
2022-11-05T11:18:37.396Z,164.27
2022-11-05T11:21:19.682Z,173.15
2022-11-05T11:24:00.784Z,172.43
2022-11-05T11:26:32.099Z,150.38
2022-11-05T11:29:11.850Z,148.15
2022-11-05T11:31:40.146Z,163.13
2022-11-05T11:34:23.042Z,155.63
2022-11-05T11:36:55.384Z,138.85
2022-11-05T11:39:27.857Z,134.68
2022-11-05T11:42:01.730Z,133.63
2022-11-05T11:44:33.592Z,136.18
2022-11-05T11:47:14.861Z,141.52
2022-11-05T11:49:52.175Z,152.80
2022-11-05T11:52:39.207Z,124.35
2022-11-05T11:55:11.105Z,129.38
2022-11-05T11:58:05.798Z,141.43
2022-11-05T12:00:40.844Z,143.80
2022-11-05T12:03:31.280Z,133.65
2022-11-05T12:06:30.309Z,118.33
2022-11-05T12:09:38.029Z,125.28
2022-11-05T12:12:13.368Z,134.45
2022-11-05T12:15:08.310Z,152.25
2022-11-05T12:17:53.463Z,151.65
2022-11-05T12:20:48.152Z,149.80
2022-11-05T12:23:27.068Z,157.23
2022-11-05T12:26:12.832Z,147.88
2022-11-05T12:29:18.842Z,178.43
2022-11-05T12:32:27.366Z,147.68
2022-11-05T12:35:18.142Z,158.43
2022-11-05T12:38:08.131Z,164.85
2022-11-05T12:40:53.871Z,157.77
2022-11-05T12:43:32.390Z,153.40
2022-11-05T12:46:14.788Z,150.57
2022-11-05T12:51:35.018Z,148.88
2022-11-05T12:54:14.453Z,163.48
2022-11-05T12:56:45.733Z,163.93
2022-11-05T12:59:12.581Z,160.10
2022-11-05T13:01:46.064Z,166.57
2022-11-05T13:04:30.382Z,163.27
2022-11-05T13:07:00.711Z,147.73
2022-11-05T13:09:37.013Z,155.43
2022-11-05T13:12:13.475Z,161.32
2022-11-05T13:14:51.540Z,147.45
2022-11-05T13:17:23.354Z,153.93
2022-11-05T13:20:17.034Z,148.27
2022-11-05T13:23:20.875Z,152.95
2022-11-05T13:25:54.044Z,161.30
2022-11-05T13:28:48.155Z,147.30
2022-11-05T13:31:20.077Z,166.75
2022-11-05T13:33:49.603Z,148.97
2022-11-05T13:36:47.125Z,166.23
2022-11-05T13:39:47.816Z,158.07
2022-11-05T13:42:26.267Z,171.38
2022-11-05T13:45:08.517Z,152.27
2022-11-05T13:47:46.713Z,170.38
2022-11-05T13:50:30.456Z,168.98
2022-11-05T13:53:08.597Z,142.82
2022-11-05T13:55:59.105Z,162.27
2022-11-05T13:58:46.911Z,149.80
2022-11-05T14:01:41.244Z,155.57
2022-11-05T14:04:35.951Z,161.90
2022-11-05T14:07:24.971Z,151.80
2022-11-05T14:10:01.031Z,148.70
2022-11-05T14:12:34.583Z,150.40
2022-11-05T14:15:17.395Z,152.07
2022-11-05T14:18:06.199Z,157.73
2022-11-05T14:20:32.885Z,150.63
2022-11-05T14:23:40.306Z,156.02
2022-11-05T14:26:17.671Z,157.18
2022-11-05T14:28:52.140Z,167.55
2022-11-05T14:31:18.952Z,149.93
2022-11-05T14:34:17.664Z,159.63
2022-11-05T14:37:01.863Z,164.65
2022-11-05T14:39:32.470Z,154.02
2022-11-05T14:42:20.880Z,147.65
2022-11-05T14:45:13.585Z,149.70
2022-11-05T14:48:02.165Z,164.63
2022-11-05T14:50:42.351Z,147.73
2022-11-05T14:53:33.606Z,156.85
2022-11-05T14:56:16.015Z,153.83
2022-11-05T15:01:33.291Z,160.68
2022-11-05T15:04:18.574Z,157.82
2022-11-05T15:07:03.459Z,164.68
2022-11-05T15:09:54.260Z,137.15
2022-11-05T15:12:48.859Z,143.80
2022-11-05T15:15:23.198Z,181.52
2022-11-05T15:18:22.740Z,153.35
2022-11-05T15:20:54.700Z,155.63
2022-11-05T15:23:27.031Z,144.60
2022-11-05T15:26:23.198Z,150.57
2022-11-05T15:28:54.610Z,156.75
2022-11-05T15:31:34.290Z,151.40
2022-11-05T15:34:29.782Z,148.13
2022-11-05T15:36:59.964Z,156.13
2022-11-05T15:39:33.533Z,151.13
2022-11-05T15:42:09.535Z,154.20
2022-11-05T15:44:41.143Z,170.88
2022-11-05T15:47:15.551Z,166.48
2022-11-05T15:49:48.619Z,168.45
2022-11-05T15:52:17.556Z,169.63
2022-11-05T15:54:45.213Z,160.77
2022-11-05T15:57:26.181Z,168.43
2022-11-05T15:59:55.889Z,162.05
2022-11-05T16:02:52.319Z,153.90
2022-11-05T16:05:20.168Z,151.02
2022-11-05T16:07:48.167Z,161.77
2022-11-05T16:10:34.035Z,169.95
2022-11-05T16:13:35.469Z,167.00
2022-11-05T16:16:14.507Z,167.40
2022-11-05T16:18:44.826Z,162.85
2022-11-05T16:21:22.516Z,170.20
2022-11-05T16:23:51.432Z,160.32
2022-11-05T16:29:34.341Z,165.38
2022-11-05T16:32:04.053Z,152.20
2022-11-05T16:34:40.173Z,167.75
2022-11-05T16:37:11.324Z,186.93
2022-11-05T16:39:38.172Z,169.00
2022-11-05T16:42:25.155Z,170.23
2022-11-05T16:44:53.926Z,148.40
2022-11-05T16:47:49.368Z,158.32
2022-11-05T16:50:18.259Z,165.10
2022-11-05T16:52:46.471Z,160.48
2022-11-05T16:55:17.186Z,171.00
2022-11-05T16:57:49.042Z,161.20
2022-11-05T17:00:18.631Z,174.13
2022-11-05T17:02:48.295Z,171.65
2022-11-05T17:05:20.126Z,174.23
2022-11-05T17:07:47.205Z,173.98
2022-11-05T17:10:14.441Z,180.07
2022-11-05T17:12:44.604Z,178.18
2022-11-05T17:15:33.517Z,164.48
2022-11-05T17:18:00.351Z,162.45
2022-11-05T17:20:33.758Z,163.02
2022-11-05T17:23:07.493Z,167.73
2022-11-05T17:25:35.134Z,170.40
2022-11-05T17:28:02.457Z,163.30
2022-11-05T17:30:32.448Z,412.90
2022-11-05T17:33:00.344Z,433.42
2022-11-05T17:35:28.393Z,161.65
2022-11-05T17:38:00.912Z,165.18
2022-11-05T17:40:28.850Z,421.73
2022-11-05T17:42:58.827Z,648.95
2022-11-05T17:45:26.849Z,414.33
2022-11-05T17:47:55.819Z,433.08
2022-11-05T17:50:22.762Z,161.55
2022-11-05T17:52:49.776Z,156.40
2022-11-05T17:55:17.176Z,163.05
2022-11-05T17:57:46.237Z,163.30
2022-11-05T18:00:14.454Z,171.05
2022-11-05T18:02:41.198Z,166.48
2022-11-05T18:05:12.626Z,159.30
2022-11-05T18:07:42.870Z,175.77
2022-11-05T18:10:10.385Z,176.05
2022-11-05T18:12:37.975Z,161.80
2022-11-05T18:15:12.654Z,169.77
2022-11-05T18:17:39.664Z,172.55
2022-11-05T18:20:11.667Z,184.48
2022-11-05T18:22:42.118Z,178.18
2022-11-05T18:25:12.834Z,175.52
2022-11-05T18:27:40.440Z,179.40
2022-11-05T18:30:10.101Z,167.57
2022-11-05T18:32:37.414Z,177.48
2022-11-05T18:35:07.513Z,171.52
2022-11-05T18:37:34.395Z,169.25
2022-11-05T18:40:01.178Z,172.82
2022-11-05T18:42:28.146Z,162.57
2022-11-05T18:44:55.383Z,166.95
2022-11-05T18:47:22.133Z,165.38
2022-11-05T18:49:48.895Z,159.40
2022-11-05T18:52:16.022Z,167.93
2022-11-05T18:54:42.929Z,172.85
2022-11-05T18:57:09.729Z,167.48
2022-11-05T18:59:39.871Z,167.30
2022-11-05T19:02:10.574Z,165.75
2022-11-05T19:04:38.353Z,169.23
2022-11-05T19:07:06.446Z,174.35
2022-11-05T19:09:34.722Z,169.50
2022-11-05T19:12:03.097Z,167.55
2022-11-05T19:14:32.856Z,168.75
2022-11-05T19:17:01.130Z,158.10
2022-11-05T19:19:29.077Z,169.10
2022-11-05T19:21:55.856Z,162.77
2022-11-05T19:24:27.735Z,287.15
2022-11-05T19:26:54.749Z,165.00
2022-11-05T19:29:22.602Z,163.15
2022-11-05T19:32:00.314Z,156.98
2022-11-05T19:34:27.654Z,168.73
2022-11-05T19:36:54.472Z,161.30
2022-11-05T19:39:21.299Z,168.02
2022-11-05T19:41:49.298Z,171.35
2022-11-05T19:44:20.261Z,164.57
2022-11-05T19:46:47.208Z,175.35
2022-11-05T19:49:14.129Z,168.25
2022-11-05T19:51:41.164Z,186.98
2022-11-05T19:54:08.505Z,181.32
2022-11-05T19:56:39.332Z,183.55
2022-11-05T19:59:08.801Z,195.20
2022-11-05T20:01:35.752Z,185.20
2022-11-05T20:04:03.311Z,173.43
2022-11-05T20:06:33.294Z,170.10
2022-11-05T20:11:58.815Z,184.23
2022-11-05T20:14:26.519Z,174.05
2022-11-05T20:16:53.914Z,160.38
2022-11-05T20:19:22.364Z,175.75
2022-11-05T20:21:49.248Z,164.18
2022-11-05T20:24:23.810Z,184.57
2022-11-05T20:26:55.428Z,174.45
2022-11-05T20:29:22.551Z,171.27
2022-11-05T20:31:52.080Z,175.52
2022-11-05T20:34:18.893Z,173.02
2022-11-05T20:36:48.243Z,175.23
2022-11-05T20:39:18.236Z,181.43
2022-11-05T20:41:46.058Z,191.15
2022-11-05T20:44:12.971Z,176.30
2022-11-05T20:46:39.818Z,187.82
2022-11-05T20:49:06.549Z,199.93
2022-11-05T20:51:35.610Z,182.02
2022-11-05T20:54:02.984Z,172.88
2022-11-05T20:56:35.794Z,174.23
2022-11-05T20:59:03.567Z,191.00
2022-11-05T21:01:34.264Z,189.90
2022-11-05T21:04:02.785Z,178.75
2022-11-05T21:06:30.317Z,183.05
2022-11-05T21:08:57.295Z,175.65
2022-11-05T21:11:26.865Z,177.18
2022-11-05T21:13:54.674Z,174.90
2022-11-05T21:16:21.864Z,172.73
2022-11-05T21:18:48.863Z,168.82
2022-11-05T21:21:17.840Z,180.80
2022-11-05T21:23:44.657Z,176.27
2022-11-05T21:26:13.666Z,188.00
2022-11-05T21:28:41.450Z,196.32
2022-11-05T21:31:08.859Z,185.98
2022-11-05T21:33:36.019Z,180.70
2022-11-05T21:36:12.147Z,184.20
2022-11-05T21:38:39.637Z,180.82
2022-11-05T21:41:07.976Z,197.50
2022-11-05T21:43:39.280Z,196.40
2022-11-05T21:46:06.070Z,194.27
2022-11-05T21:48:36.641Z,192.20
2022-11-05T21:51:24.346Z,200.52
2022-11-05T21:54:09.605Z,176.95
2022-11-05T21:56:55.432Z,201.52
2022-11-05T21:59:42.689Z,179.73
2022-11-05T22:02:12.060Z,194.40
2022-11-05T22:04:41.341Z,198.88
2022-11-05T22:07:09.887Z,192.00
2022-11-05T22:09:37.178Z,190.00
2022-11-05T22:12:06.805Z,195.73
2022-11-05T22:14:34.408Z,191.15
2022-11-05T22:17:01.609Z,179.57
2022-11-05T22:19:28.734Z,184.35
2022-11-05T22:21:55.699Z,179.48
2022-11-05T22:24:22.508Z,183.07
2022-11-05T22:26:50.838Z,180.43
2022-11-05T22:29:17.680Z,182.23
2022-11-05T22:31:47.600Z,198.20
2022-11-05T22:34:20.093Z,186.75
2022-11-05T22:36:47.143Z,193.38
2022-11-05T22:39:14.106Z,187.48
2022-11-05T22:41:41.797Z,178.73
2022-11-05T22:44:14.027Z,187.23
2022-11-05T22:46:45.377Z,189.77
2022-11-05T22:49:13.950Z,176.00
2022-11-05T22:51:40.910Z,188.95
2022-11-05T22:54:08.085Z,173.73
2022-11-05T22:56:38.662Z,188.07
2022-11-05T22:59:06.590Z,179.13
2022-11-05T23:01:33.977Z,182.43
2022-11-05T23:04:00.926Z,176.25
2022-11-05T23:06:48.728Z,165.80
2022-11-05T23:09:43.175Z,179.82
2022-11-05T23:12:29.743Z,188.30
2022-11-05T23:14:58.787Z,177.93
2022-11-05T23:17:46.819Z,173.45
2022-11-05T23:20:38.402Z,186.23
2022-11-05T23:23:28.313Z,186.75
2022-11-05T23:25:59.598Z,281.10
2022-11-05T23:28:27.033Z,183.75
2022-11-05T23:31:12.395Z,173.25
2022-11-05T23:33:39.193Z,181.85
2022-11-05T23:36:24.494Z,170.60
2022-11-05T23:38:51.200Z,169.27
2022-11-05T23:41:36.605Z,172.48
2022-11-05T23:44:22.089Z,169.20
2022-11-05T23:47:07.634Z,170.77
2022-11-05T23:49:36.475Z,181.27
2022-11-05T23:52:03.239Z,173.68
2022-11-05T23:54:30.029Z,167.98
2022-11-05T23:56:59.936Z,165.10
2022-11-05T23:59:26.851Z,167.15
